Terminal Aerodrome Forecast
Issued by NWS

Current Version | Previous Version | Graphics & Text | Print | Product List | Glossary On
Versions: 1 2 3 4 5 6 7 8 9 10 11 12 13 14 15 16 17 18 19 20 21
483
FTUS41 KILN 111144
TAFLUK
TAF
KLUK 111144Z 1112/1212 19007KT P6SM SCT080 BKN150
     FM120300 23010KT P6SM BKN120
     FM120700 28013G21KT P6SM OVC025
     FM120900 29014G24KT P6SM -FZDZ OVC010
     FM121100 30016G30KT 3SM -SHSN SCT015 OVC025=

USA.gov is the U.S. government's official web portal to all federal, state and local government web resources and services.